createdAt,value
2023-05-20T00:00:02.927Z,81.38
2023-05-20T00:05:02.969Z,81.43
2023-05-20T00:10:03.497Z,81.65
2023-05-20T00:15:03.272Z,82.37
2023-05-20T00:20:03.306Z,82.12
2023-05-20T00:25:03.159Z,82.41
2023-05-20T00:30:02.967Z,82.42
2023-05-20T00:35:03.093Z,82.21
2023-05-20T00:40:02.602Z,82.4
2023-05-20T00:45:02.709Z,82.67
2023-05-20T00:50:02.737Z,83.32
2023-05-20T00:55:03.703Z,83.59
2023-05-20T01:00:03.321Z,83.59
2023-05-20T01:05:03.557Z,83.9
2023-05-20T01:10:03.408Z,84.26
2023-05-20T01:15:03.652Z,84.42
2023-05-20T01:20:03.451Z,84.67
2023-05-20T01:25:03.388Z,85.57
2023-05-20T01:30:03.664Z,85.74
2023-05-20T01:35:02.942Z,85.64
2023-05-20T01:40:03.297Z,86.73
2023-05-20T01:45:03.004Z,86.36
2023-05-20T01:50:02.496Z,86.58
2023-05-20T01:55:03.521Z,87.21
2023-05-20T02:00:02.927Z,87.26
2023-05-20T02:05:03.356Z,87.56
2023-05-20T02:10:03.143Z,88.07
2023-05-20T02:15:03.264Z,87.96
2023-05-20T02:20:03.106Z,88.34
2023-05-20T02:25:02.860Z,89.54
2023-05-20T02:30:03.485Z,88.92
2023-05-20T02:35:02.792Z,88.95
2023-05-20T02:40:03.583Z,89.59
2023-05-20T02:45:02.647Z,89.33
2023-05-20T02:50:03.477Z,89.84
2023-05-20T02:55:03.602Z,90.15
2023-05-20T03:00:02.963Z,90.1
2023-05-20T03:05:02.669Z,89.92
2023-05-20T03:10:03.590Z,89.83
2023-05-20T03:15:03.063Z,90.01
2023-05-20T03:20:03.111Z,90.85
2023-05-20T03:25:02.885Z,90.58
2023-05-20T03:30:02.847Z,90.7
2023-05-20T03:35:02.618Z,90.95
2023-05-20T03:40:02.680Z,91.58
2023-05-20T03:45:03.557Z,91.37
2023-05-20T03:50:03.215Z,91.25
2023-05-20T03:55:03.353Z,92.13
2023-05-20T04:00:02.990Z,92.01
2023-05-20T04:05:03.566Z,91.94
2023-05-20T04:10:02.852Z,92.74
2023-05-20T04:15:03.203Z,92.58
2023-05-20T04:20:03.070Z,92.25
2023-05-20T04:25:02.884Z,91.68
2023-05-20T04:30:02.979Z,92.71
2023-05-20T04:35:02.772Z,93.11
2023-05-20T04:40:02.849Z,92.76
2023-05-20T04:45:03.352Z,92.81
2023-05-20T04:50:03.043Z,92.93
2023-05-20T04:55:04.257Z,92.74
2023-05-20T05:00:03.229Z,92.17
2023-05-20T05:05:03.307Z,91.79
2023-05-20T05:10:02.851Z,92.39
2023-05-20T05:15:03.607Z,91.6
2023-05-20T05:20:03.367Z,90.82
2023-05-20T05:25:03.230Z,90.95
2023-05-20T05:30:02.831Z,89.98
2023-05-20T05:35:02.634Z,89.02
2023-05-20T05:40:03.514Z,89.83
2023-05-20T05:45:03.432Z,90.48
2023-05-20T05:50:03.103Z,90.43
2023-05-20T05:55:02.936Z,91.79
2023-05-20T06:00:03.571Z,91.12
2023-05-20T06:05:03.385Z,90.24
2023-05-20T06:10:03.131Z,90.6
2023-05-20T06:15:02.974Z,90.86
2023-05-20T06:20:02.818Z,90.48
2023-05-20T06:25:03.437Z,90.34
2023-05-20T06:30:03.276Z,90.5
2023-05-20T06:35:02.555Z,90.36
2023-05-20T06:40:02.648Z,90.73
2023-05-20T06:45:03.532Z,90.15
2023-05-20T06:50:03.411Z,89.58
2023-05-20T06:55:03.891Z,89.62
2023-05-20T07:00:03.450Z,87.67
2023-05-20T07:05:03.134Z,87.97
2023-05-20T07:10:02.932Z,87.92
2023-05-20T07:15:02.722Z,86.81
2023-05-20T07:20:03.442Z,87.65
2023-05-20T07:25:03.364Z,86.63
2023-05-20T07:30:03.337Z,85.22
2023-05-20T07:35:03.184Z,84.01
2023-05-20T07:40:03.146Z,84.95
2023-05-20T07:45:02.938Z,85.49
2023-05-20T07:50:02.630Z,84.52
2023-05-20T07:55:03.699Z,83.39
2023-05-20T08:00:03.074Z,84.4
2023-05-20T08:05:02.903Z,84.22
2023-05-20T08:10:02.603Z,83.23
2023-05-20T08:15:03.360Z,83.24
2023-05-20T08:20:03.539Z,82.98
2023-05-20T08:25:03.355Z,83.38
2023-05-20T08:30:03.186Z,82.71
2023-05-20T08:35:02.823Z,84.15
2023-05-20T08:40:03.499Z,83.55
2023-05-20T08:45:03.611Z,83.88
2023-05-20T08:50:03.105Z,83.16
2023-05-20T08:55:03.596Z,83.02
2023-05-20T09:00:02.230Z,82.88
2023-05-20T09:05:03.551Z,81.86
2023-05-20T09:10:03.486Z,80.46
2023-05-20T09:15:03.686Z,79.09
2023-05-20T09:20:03.166Z,80.23
2023-05-20T09:25:02.821Z,79.61
2023-05-20T09:30:03.326Z,78.83
2023-05-20T09:35:02.644Z,75.72
2023-05-20T09:40:03.356Z,76.77
2023-05-20T09:45:03.112Z,76
2023-05-20T09:50:02.699Z,75.17
2023-05-20T09:55:03.780Z,74.37
2023-05-20T10:00:03.345Z,70.74
2023-05-20T10:05:02.973Z,67.54
2023-05-20T10:10:02.926Z,70.13
2023-05-20T10:15:03.517Z,69.24
2023-05-20T10:20:07.376Z,64.86
2023-05-20T10:25:03.160Z,65.56
2023-05-20T10:30:02.859Z,69.05
2023-05-20T10:35:02.653Z,69.27
2023-05-20T10:40:03.425Z,67.67
2023-05-20T10:45:03.268Z,67.26
2023-05-20T10:50:02.759Z,65.75
2023-05-20T10:55:04.647Z,62.39
2023-05-20T11:00:02.820Z,65.96
2023-05-20T11:05:03.552Z,67.21
2023-05-20T11:10:03.213Z,65.01
2023-05-20T11:15:03.227Z,66.46
2023-05-20T11:20:03.058Z,66.42
2023-05-20T11:25:02.864Z,64.43
2023-05-20T11:30:03.596Z,62.02
2023-05-20T11:35:03.411Z,65.21
2023-05-20T11:40:03.482Z,63.46
2023-05-20T11:45:03.202Z,63.79
2023-05-20T11:50:03.235Z,60.73
2023-05-20T11:55:03.459Z,61.71
2023-05-20T12:00:02.816Z,61.46
2023-05-20T12:05:03.871Z,62.76
2023-05-20T12:10:03.228Z,60.87
2023-05-20T12:15:02.909Z,58.7
2023-05-20T12:20:02.852Z,59.61
2023-05-20T12:25:03.888Z,58
2023-05-20T12:30:03.315Z,61.19
2023-05-20T12:35:03.087Z,58.7
2023-05-20T12:40:03.162Z,59.71
2023-05-20T12:45:03.162Z,58.67
2023-05-20T12:50:02.609Z,56.07
2023-05-20T12:55:03.516Z,56.04
2023-05-20T13:00:03.251Z,58.35
2023-05-20T13:05:03.134Z,57.33
2023-05-20T13:10:02.969Z,55.25
2023-05-20T13:15:02.741Z,55.93
2023-05-20T13:20:02.661Z,57.95
2023-05-20T13:25:03.298Z,58.05
2023-05-20T13:30:03.340Z,54.31
2023-05-20T13:35:02.894Z,55.33
2023-05-20T13:40:02.816Z,53.75
2023-05-20T13:45:03.584Z,55.92
2023-05-20T13:50:03.808Z,55.7
2023-05-20T13:55:03.572Z,55.86
2023-05-20T14:00:03.916Z,55.28
2023-05-20T14:05:03.329Z,55.05
2023-05-20T14:10:02.601Z,51.87
2023-05-20T14:15:02.357Z,55.8
2023-05-20T14:20:02.598Z,55.8
2023-05-20T14:25:03.551Z,54.48
2023-05-20T14:30:03.062Z,52.29
2023-05-20T14:35:02.736Z,52.68
2023-05-20T14:40:02.846Z,53.98
2023-05-20T14:45:02.945Z,52.24
2023-05-20T14:50:02.944Z,54.62
2023-05-20T14:55:03.113Z,54.6
2023-05-20T15:00:02.714Z,54.43
2023-05-20T15:05:03.624Z,54.5
2023-05-20T15:10:03.364Z,53.98
2023-05-20T15:15:02.630Z,53.94
2023-05-20T15:20:02.579Z,54.6
2023-05-20T15:25:03.563Z,54.67
2023-05-20T15:30:03.600Z,53.53
2023-05-20T15:35:03.447Z,54.01
2023-05-20T15:40:03.085Z,54.28
2023-05-20T15:45:03.469Z,57.08
2023-05-20T15:50:03.283Z,55.15
2023-05-20T15:55:03.313Z,54.96
2023-05-20T16:00:03.166Z,56.42
2023-05-20T16:05:02.599Z,55.56
2023-05-20T16:10:03.425Z,56.19
2023-05-20T16:15:03.163Z,54.84
2023-05-20T16:20:02.969Z,56.78
2023-05-20T16:25:02.887Z,56.22
2023-05-20T16:30:02.929Z,57.54
2023-05-20T16:35:02.590Z,56.29
2023-05-20T16:40:02.943Z,56.53
2023-05-20T16:45:03.094Z,56.46
2023-05-20T16:50:02.956Z,58.71
2023-05-20T16:55:03.387Z,58.26
2023-05-20T17:00:03.079Z,58.45
2023-05-20T17:05:02.749Z,60.38
2023-05-20T17:10:02.662Z,60.7
2023-05-20T17:15:03.583Z,61.11
2023-05-20T17:20:03.460Z,60.84
2023-05-20T17:25:03.093Z,61.74
2023-05-20T17:30:02.961Z,61.91
2023-05-20T17:35:02.891Z,60.79
2023-05-20T17:40:03.502Z,61.92
2023-05-20T17:45:03.296Z,61.12
2023-05-20T17:50:03.186Z,61.36
2023-05-20T17:55:03.015Z,61.07
2023-05-20T18:00:02.696Z,62.64
2023-05-20T18:05:03.541Z,62.43
2023-05-20T18:10:03.348Z,64.18
2023-05-20T18:15:03.080Z,63.72
2023-05-20T18:20:03.011Z,64.33
2023-05-20T18:25:02.727Z,63.92
2023-05-20T18:30:03.499Z,64.76
2023-05-20T18:35:03.275Z,64.78
2023-05-20T18:40:03.136Z,66.22
2023-05-20T18:45:03.216Z,67.43
2023-05-20T18:50:03.073Z,66.99
2023-05-20T18:55:03.771Z,68.23
2023-05-20T19:00:02.367Z,69.15
2023-05-20T19:05:03.662Z,69.89
2023-05-20T19:10:03.232Z,70.42
2023-05-20T19:15:03.077Z,70.87
2023-05-20T19:20:02.753Z,71.26
2023-05-20T19:25:03.466Z,72.17
2023-05-20T19:30:03.412Z,73.39
2023-05-20T19:35:02.948Z,73.82
2023-05-20T19:40:03.084Z,73.96
2023-05-20T19:45:03.099Z,73.79
2023-05-20T19:50:03.033Z,74.53
2023-05-20T19:55:03.036Z,76.33
2023-05-20T20:00:02.619Z,76.35
2023-05-20T20:05:03.430Z,76.95
2023-05-20T20:10:03.162Z,77.19
2023-05-20T20:15:03.144Z,76.94
2023-05-20T20:20:02.926Z,77.54
2023-05-20T20:25:02.901Z,78.09
2023-05-20T20:30:03.658Z,79.42
2023-05-20T20:35:03.359Z,80.69
2023-05-20T20:40:03.111Z,81.26
2023-05-20T20:45:03.060Z,80.38
2023-05-20T20:50:02.653Z,80.37
2023-05-20T20:55:03.237Z,82.31
2023-05-20T21:00:03.341Z,82.93
2023-05-20T21:05:03.201Z,82.87
2023-05-20T21:10:03.027Z,82.62
2023-05-20T21:15:02.940Z,82.99
2023-05-20T21:20:03.721Z,84.2
2023-05-20T21:25:03.066Z,85.89
2023-05-20T21:30:03.048Z,85.45
2023-05-20T21:35:02.925Z,85.65
2023-05-20T21:40:02.825Z,86.5
2023-05-20T21:45:03.641Z,86.26
2023-05-20T21:50:03.542Z,86.15
2023-05-20T21:55:03.553Z,86.18
2023-05-20T22:00:03.207Z,86.72
2023-05-20T22:05:02.815Z,87.23
2023-05-20T22:10:02.830Z,88.23
2023-05-20T22:15:03.392Z,88.03
2023-05-20T22:20:03.098Z,89.25
2023-05-20T22:25:02.866Z,90.58
2023-05-20T22:30:03.623Z,91
2023-05-20T22:35:03.376Z,91.54
2023-05-20T22:40:03.181Z,92.41
2023-05-20T22:45:02.929Z,92.64
2023-05-20T22:50:03.042Z,93.32
2023-05-20T22:55:02.774Z,93.8
2023-05-20T23:00:03.485Z,95.27
2023-05-20T23:05:03.148Z,95.36
2023-05-20T23:10:02.874Z,96.37
2023-05-20T23:15:03.551Z,97.01
2023-05-20T23:20:03.388Z,97.17
2023-05-20T23:25:03.331Z,98.06
2023-05-20T23:30:03.255Z,98.27
2023-05-20T23:35:02.955Z,99.32
2023-05-20T23:40:02.725Z,99.43
2023-05-20T23:45:03.215Z,100
2023-05-20T23:50:02.417Z,100
2023-05-20T23:55:03.704Z,100
